sensor_id;sensor_type;location;lat;lon;timestamp;P1;P4;P2;P0;N10;N4;N25;N1;N05;TS
56513;SPS30;62152;52.078;8.414;2022-08-11T00:00:57;1.51;1.51;1.51;1.43;11.40;11.40;11.39;11.36;9.69;0.50
56513;SPS30;62152;52.078;8.414;2022-08-11T00:02:49;1.43;1.43;1.43;1.35;10.79;10.79;10.79;10.75;9.17;0.51
56513;SPS30;62152;52.078;8.414;2022-08-11T00:04:38;1.60;1.60;1.60;1.51;12.07;12.07;12.07;12.03;10.26;0.51
56513;SPS30;62152;52.078;8.414;2022-08-11T00:06:24;1.52;1.52;1.52;1.44;11.48;11.48;11.48;11.44;9.76;0.51
56513;SPS30;62152;52.078;8.414;2022-08-11T00:08:19;1.54;1.54;1.54;1.46;11.65;11.65;11.64;11.60;9.90;0.51
56513;SPS30;62152;52.078;8.414;2022-08-11T00:10:08;1.52;1.52;1.52;1.43;11.44;11.44;11.44;11.40;9.73;0.51
56513;SPS30;62152;52.078;8.414;2022-08-11T00:11:57;1.48;1.48;1.48;1.40;11.17;11.17;11.17;11.13;9.49;0.50
56513;SPS30;62152;52.078;8.414;2022-08-11T00:13:45;1.40;1.40;1.40;1.32;10.57;10.57;10.56;10.53;8.98;0.50
56513;SPS30;62152;52.078;8.414;2022-08-11T00:15:40;1.54;1.54;1.54;1.45;11.61;11.61;11.61;11.57;9.87;0.50
56513;SPS30;62152;52.078;8.414;2022-08-11T00:17:29;1.30;1.30;1.30;1.23;9.80;9.80;9.80;9.77;8.33;0.50
56513;SPS30;62152;52.078;8.414;2022-08-11T00:19:19;1.68;1.68;1.68;1.59;12.69;12.69;12.68;12.64;10.79;0.51
56513;SPS30;62152;52.078;8.414;2022-08-11T00:21:10;1.62;1.62;1.62;1.53;12.20;12.19;12.19;12.15;10.37;0.50
56513;SPS30;62152;52.078;8.414;2022-08-11T00:23:00;1.51;1.51;1.51;1.43;11.44;11.44;11.43;11.39;9.72;0.50
56513;SPS30;62152;52.078;8.414;2022-08-11T00:24:50;1.49;1.49;1.49;1.41;11.26;11.26;11.26;11.22;9.57;0.51
56513;SPS30;62152;52.078;8.414;2022-08-11T00:26:37;1.67;1.67;1.67;1.58;12.64;12.64;12.64;12.59;10.75;0.50
56513;SPS30;62152;52.078;8.414;2022-08-11T00:28:23;1.58;1.58;1.58;1.49;11.91;11.90;11.90;11.86;10.12;0.50
56513;SPS30;62152;52.078;8.414;2022-08-11T00:30:11;1.51;1.51;1.51;1.43;11.40;11.40;11.40;11.36;9.69;0.51
56513;SPS30;62152;52.078;8.414;2022-08-11T00:32:02;1.72;1.72;1.72;1.63;12.99;12.98;12.98;12.94;11.04;0.50
56513;SPS30;62152;52.078;8.414;2022-08-11T00:33:58;1.41;1.41;1.41;1.33;10.65;10.64;10.64;10.60;9.05;0.48
56513;SPS30;62152;52.078;8.414;2022-08-11T00:35:46;1.58;1.58;1.58;1.49;11.92;11.92;11.91;11.87;10.13;0.47
56513;SPS30;62152;52.078;8.414;2022-08-11T00:37:34;1.56;1.56;1.56;1.48;11.79;11.79;11.79;11.75;10.02;0.48
56513;SPS30;62152;52.078;8.414;2022-08-11T00:39:27;1.64;1.64;1.64;1.55;12.36;12.36;12.35;12.31;10.51;0.49
56513;SPS30;62152;52.078;8.414;2022-08-11T00:41:22;1.60;1.60;1.60;1.51;12.06;12.06;12.05;12.01;10.25;0.48
56513;SPS30;62152;52.078;8.414;2022-08-11T00:43:23;1.55;1.55;1.55;1.46;11.67;11.67;11.67;11.63;9.92;0.48
56513;SPS30;62152;52.078;8.414;2022-08-11T00:45:36;1.68;1.68;1.68;1.59;12.70;12.70;12.69;12.65;10.79;0.47
56513;SPS30;62152;52.078;8.414;2022-08-11T00:47:38;1.76;1.76;1.76;1.66;13.27;13.27;13.26;13.22;11.28;0.48
56513;SPS30;62152;52.078;8.414;2022-08-11T00:49:51;1.79;1.79;1.79;1.69;13.50;13.50;13.50;13.45;11.48;0.48
56513;SPS30;62152;52.078;8.414;2022-08-11T00:51:55;1.68;1.68;1.68;1.59;12.66;12.66;12.66;12.62;10.76;0.48
56513;SPS30;62152;52.078;8.414;2022-08-11T00:54:02;1.33;1.33;1.33;1.26;10.04;10.03;10.03;10.00;8.53;0.47
56513;SPS30;62152;52.078;8.414;2022-08-11T00:56:18;1.49;1.49;1.49;1.41;11.24;11.23;11.23;11.19;9.55;0.47
56513;SPS30;62152;52.078;8.414;2022-08-11T00:59:14;1.67;1.67;1.67;1.58;12.62;12.61;12.61;12.57;10.72;0.47
56513;SPS30;62152;52.078;8.414;2022-08-11T01:01:44;1.57;1.57;1.57;1.49;11.87;11.87;11.86;11.82;10.09;0.49
56513;SPS30;62152;52.078;8.414;2022-08-11T01:03:59;1.47;1.47;1.47;1.39;11.10;11.10;11.10;11.06;9.44;0.49
56513;SPS30;62152;52.078;8.414;2022-08-11T01:06:14;1.73;1.73;1.73;1.64;13.10;13.09;13.09;13.05;11.13;0.50
56513;SPS30;62152;52.078;8.414;2022-08-11T01:08:54;1.53;1.53;1.53;1.45;11.55;11.54;11.54;11.50;9.82;0.50
56513;SPS30;62152;52.078;8.414;2022-08-11T01:14:13;1.65;1.65;1.65;1.56;12.43;12.42;12.42;12.38;10.56;0.51
56513;SPS30;62152;52.078;8.414;2022-08-11T01:16:53;1.49;1.49;1.49;1.41;11.27;11.27;11.27;11.23;9.58;0.49
56513;SPS30;62152;52.078;8.414;2022-08-11T01:28:13;1.60;1.60;1.60;1.51;12.07;12.06;12.06;12.02;10.26;0.49
56513;SPS30;62152;52.078;8.414;2022-08-11T01:30:57;1.53;1.53;1.53;1.45;11.59;11.59;11.58;11.54;9.85;0.51
56513;SPS30;62152;52.078;8.414;2022-08-11T01:33:48;1.61;1.61;1.61;1.52;12.13;12.12;12.12;12.08;10.31;0.52
56513;SPS30;62152;52.078;8.414;2022-08-11T01:39:21;1.57;1.57;1.57;1.49;11.87;11.87;11.86;11.82;10.09;0.50
56513;SPS30;62152;52.078;8.414;2022-08-11T01:42:03;1.49;1.49;1.49;1.41;11.27;11.26;11.26;11.22;9.58;0.50
56513;SPS30;62152;52.078;8.414;2022-08-11T01:45:05;1.64;1.64;1.64;1.55;12.40;12.39;12.39;12.35;10.54;0.49
56513;SPS30;62152;52.078;8.414;2022-08-11T01:47:16;1.53;1.53;1.53;1.44;11.52;11.52;11.51;11.48;9.79;0.49
56513;SPS30;62152;52.078;8.414;2022-08-11T01:49:31;1.56;1.56;1.56;1.47;11.76;11.76;11.76;11.72;10.00;0.49
56513;SPS30;62152;52.078;8.414;2022-08-11T01:51:34;1.53;1.53;1.53;1.44;11.53;11.53;11.53;11.49;9.80;0.50
56513;SPS30;62152;52.078;8.414;2022-08-11T01:53:50;1.48;1.48;1.48;1.39;11.14;11.14;11.13;11.09;9.47;0.49
56513;SPS30;62152;52.078;8.414;2022-08-11T01:55:48;1.52;1.52;1.52;1.44;11.50;11.50;11.49;11.45;9.77;0.49
56513;SPS30;62152;52.078;8.414;2022-08-11T01:57:49;1.49;1.49;1.49;1.41;11.29;11.28;11.28;11.24;9.59;0.48
56513;SPS30;62152;52.078;8.414;2022-08-11T02:00:05;1.71;1.71;1.71;1.62;12.94;12.94;12.94;12.89;11.00;0.49
56513;SPS30;62152;52.078;8.414;2022-08-11T02:02:05;1.72;1.72;1.72;1.62;12.96;12.96;12.95;12.91;11.02;0.50
56513;SPS30;62152;52.078;8.414;2022-08-11T02:04:35;1.53;1.53;1.53;1.45;11.55;11.55;11.54;11.51;9.82;0.50
56513;SPS30;62152;52.078;8.414;2022-08-11T02:06:37;1.45;1.45;1.45;1.37;10.95;10.95;10.94;10.91;9.31;0.50
56513;SPS30;62152;52.078;8.414;2022-08-11T02:08:41;1.45;1.45;1.45;1.37;10.91;10.91;10.91;10.87;9.28;0.49
56513;SPS30;62152;52.078;8.414;2022-08-11T02:10:43;1.75;1.75;1.75;1.65;13.20;13.20;13.20;13.15;11.22;0.49
56513;SPS30;62152;52.078;8.414;2022-08-11T02:12:52;1.52;1.52;1.52;1.44;11.51;11.51;11.50;11.46;9.78;0.48
56513;SPS30;62152;52.078;8.414;2022-08-11T02:14:53;1.57;1.57;1.57;1.48;11.84;11.83;11.83;11.79;10.06;0.48
56513;SPS30;62152;52.078;8.414;2022-08-11T02:17:01;1.80;1.80;1.80;1.71;13.62;13.62;13.62;13.57;11.58;0.49
56513;SPS30;62152;52.078;8.414;2022-08-11T02:19:03;1.57;1.57;1.57;1.49;11.87;11.87;11.86;11.82;10.09;0.48
56513;SPS30;62152;52.078;8.414;2022-08-11T02:21:18;1.60;1.60;1.60;1.51;12.09;12.08;12.08;12.04;10.27;0.48
56513;SPS30;62152;52.078;8.414;2022-08-11T02:23:32;;1.62;1.62;1.53;;;;;;
56513;SPS30;62152;52.078;8.414;2022-08-11T02:25:37;1.65;1.65;1.65;1.56;12.48;12.48;12.48;12.43;10.61;0.49
56513;SPS30;62152;52.078;8.414;2022-08-11T02:27:40;1.54;1.54;1.54;1.46;11.64;11.64;11.64;11.60;9.90;0.50
56513;SPS30;62152;52.078;8.414;2022-08-11T02:29:33;1.62;1.62;1.62;1.54;12.26;12.26;12.25;12.21;10.42;0.50
56513;SPS30;62152;52.078;8.414;2022-08-11T02:31:37;1.72;1.72;1.72;1.62;12.97;12.97;12.97;12.92;11.03;0.50
56513;SPS30;62152;52.078;8.414;2022-08-11T02:33:46;1.47;1.47;1.47;1.39;11.07;11.07;11.06;11.03;9.41;0.47
56513;SPS30;62152;52.078;8.414;2022-08-11T02:35:47;1.65;1.65;1.65;1.56;12.46;12.46;12.46;12.41;10.59;0.46
56513;SPS30;62152;52.078;8.414;2022-08-11T02:37:49;1.75;1.75;1.75;1.66;13.24;13.24;13.23;13.19;11.25;0.44
56513;SPS30;62152;52.078;8.414;2022-08-11T02:39:59;1.78;1.78;1.78;1.69;13.47;13.47;13.47;13.42;11.45;0.45
56513;SPS30;62152;52.078;8.414;2022-08-11T02:42:07;1.64;1.64;1.64;1.55;12.35;12.35;12.34;12.30;10.50;0.46
56513;SPS30;62152;52.078;8.414;2022-08-11T02:44:10;1.50;1.50;1.50;1.42;11.30;11.30;11.30;11.26;9.61;0.48
56513;SPS30;62152;52.078;8.414;2022-08-11T02:46:17;1.67;1.67;1.67;1.58;12.60;12.60;12.60;12.55;10.71;0.49
56513;SPS30;62152;52.078;8.414;2022-08-11T02:48:13;1.59;1.59;1.59;1.51;12.02;12.02;12.01;11.97;10.22;0.50
56513;SPS30;62152;52.078;8.414;2022-08-11T02:50:28;1.61;1.61;1.61;1.53;12.18;12.17;12.17;12.13;10.35;0.49
56513;SPS30;62152;52.078;8.414;2022-08-11T02:52:30;1.76;1.76;1.76;1.67;13.30;13.29;13.29;13.24;11.30;0.49
56513;SPS30;62152;52.078;8.414;2022-08-11T02:54:31;1.91;1.91;1.91;1.81;14.42;14.42;14.42;14.37;12.26;0.49
56513;SPS30;62152;52.078;8.414;2022-08-11T02:56:31;1.58;1.58;1.58;1.49;11.89;11.89;11.89;11.85;10.11;0.47
56513;SPS30;62152;52.078;8.414;2022-08-11T02:58:36;1.73;1.73;1.73;1.64;13.10;13.10;13.09;13.05;11.13;0.47
56513;SPS30;62152;52.078;8.414;2022-08-11T03:00:49;1.70;1.70;1.70;1.61;12.84;12.84;12.84;12.79;10.92;0.46
56513;SPS30;62152;52.078;8.414;2022-08-11T03:03:06;1.53;1.53;1.53;1.45;11.57;11.56;11.56;11.52;9.83;0.47
56513;SPS30;62152;52.078;8.414;2022-08-11T03:05:05;1.43;1.43;1.43;1.35;10.76;10.76;10.76;10.72;9.15;0.46
56513;SPS30;62152;52.078;8.414;2022-08-11T03:07:06;1.68;1.68;1.68;1.58;12.65;12.65;12.64;12.60;10.75;0.46
56513;SPS30;62152;52.078;8.414;2022-08-11T03:09:09;1.59;1.59;1.59;1.50;11.98;11.98;11.98;11.94;10.19;0.46
56513;SPS30;62152;52.078;8.414;2022-08-11T03:11:10;1.73;1.73;1.73;1.63;13.03;13.03;13.03;12.98;11.08;0.46
56513;SPS30;62152;52.078;8.414;2022-08-11T03:13:18;1.82;1.82;1.82;1.72;13.72;13.72;13.72;13.67;11.66;0.46
56513;SPS30;62152;52.078;8.414;2022-08-11T03:15:29;1.63;1.63;1.63;1.54;12.33;12.33;12.33;12.28;10.48;0.46
56513;SPS30;62152;52.078;8.414;2022-08-11T03:17:57;1.62;1.62;1.62;1.53;12.22;12.22;12.22;12.18;10.39;0.47
56513;SPS30;62152;52.078;8.414;2022-08-11T03:20:22;1.82;1.82;1.82;1.72;13.72;13.71;13.71;13.66;11.66;0.47
56513;SPS30;62152;52.078;8.414;2022-08-11T03:22:22;1.57;1.57;1.57;1.49;11.87;11.87;11.87;11.83;10.09;0.46
56513;SPS30;62152;52.078;8.414;2022-08-11T03:24:20;1.66;1.66;1.66;1.57;12.53;12.52;12.52;12.48;10.65;0.47
56513;SPS30;62152;52.078;8.414;2022-08-11T03:26:22;1.68;1.68;1.68;1.59;12.70;12.70;12.69;12.65;10.79;0.47
56513;SPS30;62152;52.078;8.414;2022-08-11T03:28:21;1.58;1.58;1.58;1.49;11.90;11.90;11.90;11.86;10.12;0.48
56513;SPS30;62152;52.078;8.414;2022-08-11T03:30:18;1.55;1.55;1.55;1.47;11.72;11.72;11.71;11.67;9.96;0.47
56513;SPS30;62152;52.078;8.414;2022-08-11T03:32:19;1.63;1.63;1.63;1.54;12.28;12.28;12.28;12.23;10.44;0.47
56513;SPS30;62152;52.078;8.414;2022-08-11T03:34:13;1.78;1.78;1.78;1.68;13.44;13.44;13.43;13.39;11.42;0.46
56513;SPS30;62152;52.078;8.414;2022-08-11T03:36:06;1.87;1.87;1.87;1.77;14.12;14.12;14.12;14.07;12.01;0.47
56513;SPS30;62152;52.078;8.414;2022-08-11T03:38:07;2.34;2.34;2.34;2.21;17.65;17.65;17.64;17.58;15.00;0.47
56513;SPS30;62152;52.078;8.414;2022-08-11T03:40:02;2.51;2.51;2.51;2.37;18.95;18.95;18.94;18.88;16.11;0.48
56513;SPS30;62152;52.078;8.414;2022-08-11T03:42:21;2.77;2.77;2.77;2.62;20.92;20.92;20.91;20.84;17.78;0.47
56513;SPS30;62152;52.078;8.414;2022-08-11T03:44:32;3.21;3.21;3.21;3.04;24.26;24.26;24.25;24.17;20.62;0.46
56513;SPS30;62152;52.078;8.414;2022-08-11T03:46:35;3.33;3.33;3.33;3.15;25.11;25.11;25.10;25.02;21.35;0.49
56513;SPS30;62152;52.078;8.414;2022-08-11T03:48:53;3.38;3.38;3.38;3.19;25.50;25.50;25.49;25.40;21.68;0.49
56513;SPS30;62152;52.078;8.414;2022-08-11T03:50:55;3.22;3.22;3.22;3.04;24.31;24.30;24.30;24.21;20.66;0.48
56513;SPS30;62152;52.078;8.414;2022-08-11T03:53:01;3.39;3.39;3.39;3.20;25.57;25.56;25.55;25.47;21.73;0.51
56513;SPS30;62152;52.078;8.414;2022-08-11T03:55:01;3.04;3.04;3.04;2.88;22.96;22.95;22.95;22.87;19.51;0.52
56513;SPS30;62152;52.078;8.414;2022-08-11T03:57:19;3.05;3.05;3.05;2.88;23.01;23.01;23.00;22.93;19.56;0.53
56513;SPS30;62152;52.078;8.414;2022-08-11T04:00:18;3.00;3.00;3.00;2.83;22.63;22.62;22.62;22.54;19.23;0.50
56513;SPS30;62152;52.078;8.414;2022-08-11T04:03:09;3.17;3.17;3.17;3.00;23.95;23.94;23.94;23.86;20.36;0.50
56513;SPS30;62152;52.078;8.414;2022-08-11T04:10:52;3.03;3.03;3.03;2.87;22.89;22.88;22.88;22.80;19.46;0.46
56513;SPS30;62152;52.078;8.414;2022-08-11T04:16:09;3.07;3.07;3.07;2.91;23.20;23.20;23.19;23.11;19.72;0.48
56513;SPS30;62152;52.078;8.414;2022-08-11T04:21:01;3.23;3.23;3.23;3.06;24.42;24.41;24.40;24.32;20.75;0.45
56513;SPS30;62152;52.078;8.414;2022-08-11T04:23:17;3.41;3.41;3.41;3.22;25.72;25.72;25.71;25.62;21.86;0.44
56513;SPS30;62152;52.078;8.414;2022-08-11T04:25:35;3.12;3.12;3.12;2.95;23.56;23.56;23.55;23.47;20.03;0.46
56513;SPS30;62152;52.078;8.414;2022-08-11T04:30:29;2.98;2.98;2.98;2.82;22.51;22.50;22.50;22.42;19.13;0.48
56513;SPS30;62152;52.078;8.414;2022-08-11T04:32:56;3.12;3.12;3.12;2.95;23.53;23.53;23.52;23.44;20.00;0.47
56513;SPS30;62152;52.078;8.414;2022-08-11T04:35:31;3.30;3.30;3.30;3.12;24.91;24.91;24.90;24.81;21.18;0.48
56513;SPS30;62152;52.078;8.414;2022-08-11T04:40:43;3.10;3.10;3.10;2.93;23.43;23.42;23.42;23.34;19.91;0.49
56513;SPS30;62152;52.078;8.414;2022-08-11T04:45:32;2.98;2.98;2.98;2.82;22.49;22.49;22.48;22.40;19.12;0.50
56513;SPS30;62152;52.078;8.414;2022-08-11T04:47:52;2.93;2.93;2.93;2.77;22.13;22.13;22.13;22.05;18.82;0.51
56513;SPS30;62152;52.078;8.414;2022-08-11T04:50:16;3.04;3.04;3.04;2.87;22.92;22.92;22.91;22.84;19.49;0.48
56513;SPS30;62152;52.078;8.414;2022-08-11T04:52:45;3.12;3.12;3.12;2.95;23.53;23.53;23.52;23.44;20.00;0.46
56513;SPS30;62152;52.078;8.414;2022-08-11T04:57:52;3.15;3.15;3.15;2.98;23.80;23.80;23.79;23.71;20.23;0.45
56513;SPS30;62152;52.078;8.414;2022-08-11T05:00:15;3.28;3.28;3.28;3.10;24.76;24.76;24.75;24.67;21.05;0.45
56513;SPS30;62152;52.078;8.414;2022-08-11T05:02:31;2.76;2.76;2.76;2.61;20.86;20.86;20.85;20.78;17.74;0.44
56513;SPS30;62152;52.078;8.414;2022-08-11T05:05:08;2.80;2.80;2.80;2.64;21.11;21.11;21.10;21.03;17.94;0.47
56513;SPS30;62152;52.078;8.414;2022-08-11T05:07:24;3.06;3.06;3.06;2.90;23.12;23.12;23.11;23.03;19.65;0.48
56513;SPS30;62152;52.078;8.414;2022-08-11T05:10:07;3.12;3.12;3.12;2.95;23.55;23.54;23.54;23.46;20.02;0.49
56513;SPS30;62152;52.078;8.414;2022-08-11T05:14:29;3.05;3.05;3.05;2.89;23.05;23.05;23.04;22.96;19.60;0.48
56513;SPS30;62152;52.078;8.414;2022-08-11T05:16:32;2.87;2.87;2.87;2.72;21.70;21.70;21.69;21.62;18.45;0.49
56513;SPS30;62152;52.078;8.414;2022-08-11T05:18:44;2.95;2.95;2.95;2.79;22.28;22.28;22.27;22.19;18.94;0.47
56513;SPS30;62152;52.078;8.414;2022-08-11T05:20:48;3.19;3.19;3.19;3.02;24.11;24.11;24.10;24.02;20.50;0.47
56513;SPS30;62152;52.078;8.414;2022-08-11T05:22:51;3.07;3.07;3.07;2.90;23.17;23.17;23.16;23.09;19.70;0.47
56513;SPS30;62152;52.078;8.414;2022-08-11T05:24:51;2.91;2.91;2.91;2.75;21.96;21.96;21.95;21.88;18.67;0.49
56513;SPS30;62152;52.078;8.414;2022-08-11T05:27:02;2.98;2.98;2.98;2.82;22.52;22.51;22.51;22.43;19.14;0.49
56513;SPS30;62152;52.078;8.414;2022-08-11T05:31:38;3.19;3.19;3.19;3.02;24.11;24.11;24.10;24.02;20.50;0.49
56513;SPS30;62152;52.078;8.414;2022-08-11T05:33:46;3.25;3.25;3.25;3.07;24.53;24.53;24.52;24.44;20.86;0.51
56513;SPS30;62152;52.078;8.414;2022-08-11T05:35:48;3.11;3.11;3.11;2.94;23.45;23.44;23.44;23.36;19.93;0.51
56513;SPS30;62152;52.078;8.414;2022-08-11T05:37:49;2.98;2.98;2.98;2.82;22.53;22.52;22.52;22.44;19.15;0.50
56513;SPS30;62152;52.078;8.414;2022-08-11T05:39:52;3.07;3.07;3.07;2.90;23.15;23.14;23.14;23.06;19.67;0.50
56513;SPS30;62152;52.078;8.414;2022-08-11T05:42:01;3.08;3.08;3.08;2.91;23.23;23.22;23.22;23.14;19.75;0.52
56513;SPS30;62152;52.078;8.414;2022-08-11T05:44:03;2.82;2.82;2.82;2.67;21.31;21.31;21.30;21.23;18.11;0.51
56513;SPS30;62152;52.078;8.414;2022-08-11T05:46:05;3.03;3.03;3.03;2.87;22.88;22.87;22.87;22.79;19.45;0.51
56513;SPS30;62152;52.078;8.414;2022-08-11T05:48:04;2.99;2.99;2.99;2.83;22.56;22.56;22.55;22.47;19.18;0.50
56513;SPS30;62152;52.078;8.414;2022-08-11T05:50:03;3.35;3.35;3.35;3.17;25.28;25.28;25.27;25.19;21.49;0.50
56513;SPS30;62152;52.078;8.414;2022-08-11T05:52:12;3.02;3.02;3.02;2.86;22.80;22.80;22.79;22.71;19.38;0.49
56513;SPS30;62152;52.078;8.414;2022-08-11T05:54:13;3.14;3.14;3.14;2.97;23.69;23.68;23.68;23.60;20.14;0.48
56513;SPS30;62152;52.078;8.414;2022-08-11T05:56:13;2.95;2.95;2.95;2.79;22.26;22.26;22.25;22.18;18.93;0.48
56513;SPS30;62152;52.078;8.414;2022-08-11T05:58:03;3.04;3.04;3.04;2.87;22.92;22.92;22.91;22.84;19.49;0.47
56513;SPS30;62152;52.078;8.414;2022-08-11T05:59:57;2.86;2.86;2.86;2.70;21.57;21.56;21.56;21.48;18.33;0.47
56513;SPS30;62152;52.078;8.414;2022-08-11T06:01:57;3.08;3.08;3.08;2.92;23.28;23.28;23.27;23.19;19.79;0.48
56513;SPS30;62152;52.078;8.414;2022-08-11T06:03:47;2.96;2.96;2.96;2.80;22.34;22.34;22.33;22.25;18.99;0.46
56513;SPS30;62152;52.078;8.414;2022-08-11T06:05:53;3.12;3.12;3.12;2.95;23.59;23.58;23.58;23.50;20.05;0.46
56513;SPS30;62152;52.078;8.414;2022-08-11T06:07:42;3.13;3.13;3.13;2.96;23.65;23.64;23.64;23.56;20.10;0.47
56513;SPS30;62152;52.078;8.414;2022-08-11T06:09:32;3.22;3.22;3.22;3.05;24.33;24.32;24.31;24.23;20.68;0.48
56513;SPS30;62152;52.078;8.414;2022-08-11T06:11:21;3.06;3.06;3.06;2.90;23.12;23.12;23.11;23.03;19.65;0.47
56513;SPS30;62152;52.078;8.414;2022-08-11T06:13:13;3.13;3.13;3.13;2.96;23.64;23.64;23.63;23.55;20.09;0.47
56513;SPS30;62152;52.078;8.414;2022-08-11T06:15:04;2.77;2.77;2.77;2.62;20.90;20.90;20.89;20.82;17.77;0.47
56513;SPS30;62152;52.078;8.414;2022-08-11T06:16:58;3.10;3.10;3.10;2.93;23.42;23.41;23.41;23.33;19.91;0.49
56513;SPS30;62152;52.078;8.414;2022-08-11T06:18:48;2.81;2.81;2.81;2.66;21.24;21.24;21.23;21.16;18.06;0.48
56513;SPS30;62152;52.078;8.414;2022-08-11T06:20:34;3.08;3.08;3.08;2.91;23.23;23.22;23.22;23.14;19.74;0.47
56513;SPS30;62152;52.078;8.414;2022-08-11T06:22:31;3.22;3.22;3.22;3.05;24.32;24.32;24.31;24.23;20.68;0.47
56513;SPS30;62152;52.078;8.414;2022-08-11T06:24:17;2.85;2.85;2.85;2.69;21.51;21.50;21.50;21.43;18.28;0.47
56513;SPS30;62152;52.078;8.414;2022-08-11T06:26:06;3.07;3.07;3.07;2.90;23.18;23.18;23.17;23.09;19.71;0.47
56513;SPS30;62152;52.078;8.414;2022-08-11T06:27:53;3.00;3.00;3.00;2.84;22.65;22.65;22.64;22.57;19.26;0.48
56513;SPS30;62152;52.078;8.414;2022-08-11T06:29:45;3.00;3.00;3.00;2.84;22.64;22.64;22.63;22.55;19.25;0.48
56513;SPS30;62152;52.078;8.414;2022-08-11T06:31:34;3.20;3.20;3.20;3.03;24.16;24.16;24.15;24.07;20.54;0.48
56513;SPS30;62152;52.078;8.414;2022-08-11T06:33:28;2.88;2.88;2.88;2.72;21.75;21.74;21.74;21.66;18.48;0.48
56513;SPS30;62152;52.078;8.414;2022-08-11T06:35:21;3.12;3.12;3.12;2.95;23.56;23.56;23.55;23.47;20.03;0.48
56513;SPS30;62152;52.078;8.414;2022-08-11T06:37:19;3.40;3.40;3.40;3.21;25.66;25.65;25.64;25.56;21.81;0.48
56513;SPS30;62152;52.078;8.414;2022-08-11T06:39:19;3.08;3.08;3.08;2.92;23.28;23.28;23.27;23.19;19.79;0.48
56513;SPS30;62152;52.078;8.414;2022-08-11T06:41:17;3.17;3.17;3.17;2.99;23.91;23.90;23.90;23.81;20.32;0.48
56513;SPS30;62152;52.078;8.414;2022-08-11T06:43:15;2.83;2.83;2.83;2.68;21.38;21.38;21.37;21.30;18.18;0.47
56513;SPS30;62152;52.078;8.414;2022-08-11T06:45:11;3.10;3.10;3.10;2.93;23.40;23.40;23.39;23.31;19.89;0.47
56513;SPS30;62152;52.078;8.414;2022-08-11T06:47:11;3.07;3.07;3.07;2.90;23.19;23.18;23.18;23.10;19.71;0.48
56513;SPS30;62152;52.078;8.414;2022-08-11T06:49:03;3.13;3.13;3.13;2.96;23.61;23.61;23.60;23.52;20.07;0.48
56513;SPS30;62152;52.078;8.414;2022-08-11T06:51:12;3.00;3.00;3.00;2.84;22.64;22.63;22.63;22.55;19.24;0.46
56513;SPS30;62152;52.078;8.414;2022-08-11T06:52:57;2.85;2.85;2.85;2.70;21.55;21.55;21.54;21.47;18.32;0.48
56513;SPS30;62152;52.078;8.414;2022-08-11T06:54:48;3.07;3.07;3.07;2.91;23.21;23.21;23.20;23.12;19.73;0.47
56513;SPS30;62152;52.078;8.414;2022-08-11T06:56:45;2.96;2.96;2.96;2.80;22.38;22.38;22.37;22.30;19.03;0.47
56513;SPS30;62152;52.078;8.414;2022-08-11T06:58:46;3.10;3.10;3.10;2.93;23.39;23.39;23.38;23.30;19.88;0.48
56513;SPS30;62152;52.078;8.414;2022-08-11T07:00:46;2.94;2.94;2.94;2.78;22.19;22.19;22.18;22.11;18.87;0.48
56513;SPS30;62152;52.078;8.414;2022-08-11T07:02:42;2.73;2.73;2.73;2.58;20.64;20.63;20.63;20.56;17.54;0.47
56513;SPS30;62152;52.078;8.414;2022-08-11T07:04:42;2.98;2.98;2.98;2.82;22.53;22.53;22.52;22.45;19.15;0.47
56513;SPS30;62152;52.078;8.414;2022-08-11T07:06:39;3.01;3.01;3.01;2.84;22.71;22.71;22.70;22.62;19.31;0.48
56513;SPS30;62152;52.078;8.414;2022-08-11T07:09:08;3.16;3.16;3.16;2.98;23.83;23.82;23.82;23.73;20.25;0.49
56513;SPS30;62152;52.078;8.414;2022-08-11T07:11:48;3.02;3.02;3.02;2.86;22.82;22.82;22.81;22.73;19.40;0.49
56513;SPS30;62152;52.078;8.414;2022-08-11T07:14:04;2.95;2.95;2.95;2.79;22.30;22.29;22.29;22.21;18.95;0.47
56513;SPS30;62152;52.078;8.414;2022-08-11T07:16:06;3.02;3.02;3.02;2.85;22.78;22.77;22.77;22.69;19.36;0.48
56513;SPS30;62152;52.078;8.414;2022-08-11T07:17:54;2.99;2.99;2.99;2.83;22.56;22.55;22.55;22.47;19.18;0.49
56513;SPS30;62152;52.078;8.414;2022-08-11T07:20:05;2.80;2.80;2.80;2.65;21.14;21.13;21.13;21.06;17.97;0.48
56513;SPS30;62152;52.078;8.414;2022-08-11T07:22:09;2.78;2.78;2.78;2.63;21.01;21.00;21.00;20.93;17.86;0.48
56513;SPS30;62152;52.078;8.414;2022-08-11T07:24:11;2.84;2.84;2.84;2.69;21.48;21.48;21.47;21.40;18.26;0.47
56513;SPS30;62152;52.078;8.414;2022-08-11T07:26:14;2.77;2.77;2.77;2.62;20.90;20.90;20.89;20.82;17.77;0.47
56513;SPS30;62152;52.078;8.414;2022-08-11T07:28:21;3.03;3.03;3.03;2.87;22.90;22.89;22.89;22.81;19.46;0.46
56513;SPS30;62152;52.078;8.414;2022-08-11T07:30:23;2.93;2.93;2.93;2.77;22.16;22.15;22.15;22.07;18.83;0.46
56513;SPS30;62152;52.078;8.414;2022-08-11T07:32:15;3.04;3.04;3.04;2.88;22.99;22.99;22.98;22.90;19.54;0.45
56513;SPS30;62152;52.078;8.414;2022-08-11T07:34:14;2.77;2.77;2.77;2.62;20.93;20.93;20.92;20.85;17.79;0.46
56513;SPS30;62152;52.078;8.414;2022-08-11T07:36:11;2.94;2.94;2.94;2.78;22.18;22.18;22.17;22.10;18.86;0.48
56513;SPS30;62152;52.078;8.414;2022-08-11T07:38:01;2.77;2.77;2.77;2.62;20.88;20.88;20.87;20.80;17.75;0.47
56513;SPS30;62152;52.078;8.414;2022-08-11T07:39:52;2.99;2.99;2.99;2.82;22.54;22.54;22.53;22.45;19.16;0.47
56513;SPS30;62152;52.078;8.414;2022-08-11T07:41:41;2.89;2.89;2.89;2.73;21.79;21.78;21.78;21.70;18.52;0.47
56513;SPS30;62152;52.078;8.414;2022-08-11T07:43:28;2.97;2.97;2.97;2.81;22.44;22.43;22.43;22.35;19.07;0.46
56513;SPS30;62152;52.078;8.414;2022-08-11T07:45:14;2.77;2.77;2.77;2.62;20.94;20.94;20.93;20.86;17.80;0.45
56513;SPS30;62152;52.078;8.414;2022-08-11T07:47:12;2.85;2.85;2.85;2.69;21.49;21.48;21.48;21.40;18.26;0.47
56513;SPS30;62152;52.078;8.414;2022-08-11T07:49:11;2.96;2.96;2.96;2.79;22.32;22.31;22.31;22.23;18.97;0.47
56513;SPS30;62152;52.078;8.414;2022-08-11T07:51:12;3.13;3.13;3.13;2.96;23.63;23.63;23.62;23.54;20.09;0.47
56513;SPS30;62152;52.078;8.414;2022-08-11T07:53:15;3.08;3.08;3.08;2.91;23.25;23.25;23.24;23.17;19.77;0.49
56513;SPS30;62152;52.078;8.414;2022-08-11T07:55:03;2.80;2.80;2.80;2.64;21.11;21.10;21.10;21.02;17.94;0.49
56513;SPS30;62152;52.078;8.414;2022-08-11T07:56:55;3.07;3.07;3.07;2.90;23.14;23.14;23.13;23.06;19.67;0.49
56513;SPS30;62152;52.078;8.414;2022-08-11T07:58:42;2.87;2.87;2.87;2.71;21.64;21.64;21.63;21.56;18.40;0.49
56513;SPS30;62152;52.078;8.414;2022-08-11T08:00:41;2.93;2.93;2.93;2.77;22.09;22.09;22.08;22.01;18.78;0.49
56513;SPS30;62152;52.078;8.414;2022-08-11T08:02:44;2.94;2.94;2.94;2.78;22.17;22.16;22.16;22.08;18.84;0.49
56513;SPS30;62152;52.078;8.414;2022-08-11T08:04:42;2.81;2.81;2.81;2.66;21.23;21.22;21.22;21.14;18.04;0.52
56513;SPS30;62152;52.078;8.414;2022-08-11T08:06:46;2.75;2.75;2.75;2.60;20.78;20.78;20.77;20.70;17.67;0.51
56513;SPS30;62152;52.078;8.414;2022-08-11T08:08:45;2.90;2.90;2.90;2.74;21.88;21.88;21.87;21.80;18.60;0.50
56513;SPS30;62152;52.078;8.414;2022-08-11T08:10:43;2.58;2.58;2.58;2.44;19.45;19.44;19.44;19.37;16.53;0.49
56513;SPS30;62152;52.078;8.414;2022-08-11T08:12:41;2.84;2.84;2.84;2.69;21.47;21.46;21.46;21.38;18.25;0.49
56513;SPS30;62152;52.078;8.414;2022-08-11T08:14:40;2.76;2.76;2.76;2.61;20.85;20.85;20.84;20.77;17.73;0.50
56513;SPS30;62152;52.078;8.414;2022-08-11T08:16:38;2.81;2.81;2.81;2.65;21.19;21.18;21.18;21.10;18.01;0.49
56513;SPS30;62152;52.078;8.414;2022-08-11T08:18:38;2.84;2.84;2.84;2.69;21.47;21.47;21.46;21.39;18.25;0.48
56513;SPS30;62152;52.078;8.414;2022-08-11T08:20:26;2.88;2.88;2.88;2.73;21.78;21.77;21.77;21.69;18.51;0.48
56513;SPS30;62152;52.078;8.414;2022-08-11T08:22:21;2.87;2.87;2.87;2.72;21.70;21.69;21.69;21.61;18.44;0.47
56513;SPS30;62152;52.078;8.414;2022-08-11T08:24:07;2.80;2.80;2.80;2.64;21.11;21.11;21.11;21.03;17.95;0.47
56513;SPS30;62152;52.078;8.414;2022-08-11T08:25:54;2.95;2.95;2.95;2.79;22.26;22.26;22.25;22.18;18.93;0.47
56513;SPS30;62152;52.078;8.414;2022-08-11T08:27:41;2.85;2.85;2.85;2.69;21.51;21.51;21.50;21.43;18.29;0.47
56513;SPS30;62152;52.078;8.414;2022-08-11T08:29:26;2.81;2.81;2.81;2.65;21.19;21.19;21.18;21.11;18.01;0.48